Aérodrome :
LOGIN :

S'inscrire | Disclaimer

   EN    FR    IT 

 










Légende :    VFR   VFR Marginal   IFR   IFR Intensif   IFR Très Intensif
Visi : 
Plafond : 
>= 8 km
>= 3000ft
5 à 8 km
1000 à 3000 ft
1500m à 5 km
500 à 1000 ft
800 à 1500m
200 à 500 ft
< 800m
< 200 ft
Symboles :   Orages  Brouillard  Fortes neiges  Fortes précipitations  Vent > 20 kt
SIGMETs :   Divers  Orages  Givrage  Turbulence  Onde Orograph.  Cendres Volcan.






- Altitude de l'aérodrome : 294 ft
- Code IATA : NAP


LIRN - Naples Capodichino

DERNIER METAR :
  • 191350Z 32007KT 290V350 9999 FEW040 29/14 Q1013 NOSIG

METARs EXPIRÉS :
  • 191320Z 27007KT 220V310 9999 FEW040 29/18 Q1014 NOSIG
  • 191250Z 23008KT 200V260 9999 FEW030 28/19 Q1014 NOSIG
  • 191220Z 22008KT 170V260 9999 SCT030 28/19 Q1014 NOSIG
  • 191150Z 25008KT 220V280 9999 SCT030 28/19 Q1014 NOSIG
  • 191120Z 22005KT 170V300 9999 SCT030 28/18 Q1014 NOSIG

TAF TAF LIRN
Valide du 19 à 12h jusqu'au 20 à 12h UTC


191100Z 1912/2012 24010KT 9999 SCT040
TEMPO 2016/2020 SHRA
BECMG 1918/1920 VRB06KT



MET'MAP, la Météo Aéronautique d'un coup d'oeil ! - Copyright ORBIFLY Décembre 2007 - Disclaimer

ORBIFLY MET'MAP TEAM :

Programmation & Développement : Alexandra Zaïnal
Sur une idée originale de : Baudouin d'Aumeries
Assistance à la programmation : Marc-Olivier Méhu
Soutien technique & logistique : Manuel Goepfert

Contact : metmap@orbifly.com




SOURCES & CREDITS :

   NOAA